createdAt,value
2019-05-22T00:00:58.134Z,100.00
2019-05-22T00:03:33.676Z,100.00
2019-05-22T00:08:43.130Z,100.00
2019-05-22T00:11:13.280Z,100.00
2019-05-22T00:13:44.508Z,100.00
2019-05-22T00:16:14.757Z,100.00
2019-05-22T00:21:22.294Z,100.00
2019-05-22T00:23:52.069Z,100.00
2019-05-22T00:26:22.918Z,100.00
2019-05-22T00:28:53.655Z,100.00
2019-05-22T00:31:23.320Z,100.00
2019-05-22T00:33:54.381Z,100.00
2019-05-22T00:36:23.803Z,100.00
2019-05-22T00:41:37.870Z,100.00
2019-05-22T00:44:08.380Z,100.00
2019-05-22T00:49:16.528Z,100.00
2019-05-22T00:52:25.302Z,100.00
2019-05-22T00:57:56.317Z,100.00
2019-05-22T01:00:28.018Z,100.00
2019-05-22T01:05:48.191Z,100.00
2019-05-22T01:08:17.623Z,100.00
2019-05-22T01:13:35.680Z,100.00
2019-05-22T01:16:07.786Z,100.00
2019-05-22T01:18:38.724Z,100.00
2019-05-22T01:21:09.805Z,100.00
2019-05-22T01:26:25.679Z,100.00
2019-05-22T01:28:55.747Z,100.00
2019-05-22T01:31:35.627Z,100.00
2019-05-22T01:34:12.169Z,100.00
2019-05-22T01:36:46.829Z,100.00
2019-05-22T01:42:27.862Z,100.00
2019-05-22T01:45:05.675Z,100.00
2019-05-22T01:47:53.348Z,100.00
2019-05-22T01:50:41.274Z,100.00
2019-05-22T01:53:13.210Z,100.00
2019-05-22T01:58:30.313Z,100.00
2019-05-22T02:01:00.203Z,100.00
2019-05-22T02:06:09.484Z,100.00
2019-05-22T02:08:44.989Z,100.00
2019-05-22T02:11:19.164Z,100.00
2019-05-22T02:13:57.521Z,100.00
2019-05-22T02:16:30.106Z,100.00
2019-05-22T02:21:37.578Z,100.00
2019-05-22T02:24:07.042Z,100.00
2019-05-22T02:29:23.096Z,100.00
2019-05-22T02:31:55.579Z,100.00
2019-05-22T02:37:06.972Z,100.00
2019-05-22T02:42:25.911Z,100.00
2019-05-22T02:44:55.112Z,100.00
2019-05-22T02:47:24.848Z,100.00
2019-05-22T02:49:55.581Z,100.00
2019-05-22T02:52:25.086Z,100.00
2019-05-22T02:54:55.023Z,100.00
2019-05-22T02:57:27.869Z,100.00
2019-05-22T02:59:58.037Z,100.00
2019-05-22T03:05:10.451Z,100.00
2019-05-22T03:07:41.284Z,100.00
2019-05-22T03:12:56.031Z,100.00
2019-05-22T03:18:07.697Z,100.00
2019-05-22T03:20:39.785Z,100.00
2019-05-22T03:23:35.926Z,100.00
2019-05-22T03:26:07.642Z,100.00
2019-05-22T03:31:18.166Z,100.00
2019-05-22T03:33:47.435Z,100.00
2019-05-22T03:36:20.375Z,100.00
2019-05-22T03:38:50.117Z,100.00
2019-05-22T03:41:20.312Z,100.00
2019-05-22T03:43:50.789Z,100.00
2019-05-22T03:46:45.675Z,100.00
2019-05-22T03:49:30.113Z,100.00
2019-05-22T03:51:51.938Z,100.00
2019-05-22T03:54:21.470Z,100.00
2019-05-22T03:59:28.577Z,100.00
2019-05-22T04:01:58.591Z,100.00
2019-05-22T04:04:39.714Z,100.00
2019-05-22T04:07:13.585Z,100.00
2019-05-22T04:09:44.976Z,100.00
2019-05-22T04:14:56.570Z,100.00
2019-05-22T04:20:09.092Z,100.00
2019-05-22T04:22:38.872Z,100.00
2019-05-22T04:25:09.660Z,100.00
2019-05-22T04:27:39.897Z,100.00
2019-05-22T04:30:12.507Z,100.00
2019-05-22T04:32:44.199Z,100.00
2019-05-22T04:35:16.931Z,100.00
2019-05-22T04:37:49.014Z,100.00
2019-05-22T04:40:57.469Z,100.00
2019-05-22T04:43:30.464Z,100.00
2019-05-22T04:46:00.734Z,100.00
2019-05-22T04:48:34.732Z,100.00
2019-05-22T04:54:00.047Z,100.00
2019-05-22T04:56:29.685Z,100.00
2019-05-22T04:59:01.140Z,100.00
2019-05-22T05:04:07.848Z,100.00
2019-05-22T05:06:36.970Z,100.00
2019-05-22T05:09:13.785Z,100.00
2019-05-22T05:14:26.250Z,100.00
2019-05-22T05:19:33.413Z,100.00
2019-05-22T05:24:40.314Z,100.00
2019-05-22T05:29:53.078Z,100.00
2019-05-22T05:32:22.591Z,100.00
2019-05-22T05:35:00.859Z,100.00
2019-05-22T05:37:29.676Z,100.00
2019-05-22T05:40:31.247Z,100.00
2019-05-22T05:43:01.005Z,100.00
2019-05-22T05:45:32.097Z,100.00
2019-05-22T05:48:02.775Z,100.00
2019-05-22T05:50:39.732Z,100.00
2019-05-22T05:53:06.092Z,100.00
2019-05-22T05:56:13.854Z,100.00
2019-05-22T05:58:43.836Z,100.00
2019-05-22T06:01:23.715Z,99.37
2019-05-22T06:07:19.125Z,97.03
2019-05-22T06:10:42.675Z,96.94
2019-05-22T06:13:12.283Z,96.70
2019-05-22T06:16:48.763Z,96.85
2019-05-22T06:19:19.404Z,95.74
2019-05-22T06:21:49.724Z,96.47
2019-05-22T06:24:45.150Z,96.25
2019-05-22T06:27:25.300Z,95.67
2019-05-22T06:30:06.959Z,95.34
2019-05-22T06:33:38.589Z,95.07
2019-05-22T06:36:13.747Z,94.45
2019-05-22T06:39:02.567Z,94.98
2019-05-22T06:41:38.202Z,93.67
2019-05-22T06:44:42.851Z,93.14
2019-05-22T06:50:05.927Z,92.41
2019-05-22T06:52:35.798Z,91.45
2019-05-22T06:55:05.609Z,91.56
2019-05-22T06:57:35.822Z,91.10
2019-05-22T07:00:21.468Z,91.14
2019-05-22T07:02:50.509Z,89.84
2019-05-22T07:05:19.774Z,89.67
2019-05-22T07:07:49.117Z,89.32
2019-05-22T07:10:18.922Z,88.75
2019-05-22T07:12:50.898Z,88.50
2019-05-22T07:15:41.266Z,89.01
2019-05-22T07:18:13.046Z,88.83
2019-05-22T07:20:44.720Z,89.05
2019-05-22T07:23:16.385Z,89.28
2019-05-22T07:25:46.730Z,89.76
2019-05-22T07:28:17.915Z,90.44
2019-05-22T07:33:25.446Z,91.08
2019-05-22T07:36:09.427Z,91.36
2019-05-22T07:38:27.270Z,91.95
2019-05-22T07:40:56.541Z,92.33
2019-05-22T07:43:25.977Z,89.21
2019-05-22T07:45:56.492Z,87.04
2019-05-22T07:48:27.583Z,85.80
2019-05-22T07:50:57.781Z,85.31
2019-05-22T07:53:27.467Z,85.42
2019-05-22T07:55:59.071Z,85.11
2019-05-22T07:58:30.631Z,85.28
2019-05-22T08:01:01.683Z,85.00
2019-05-22T08:03:32.047Z,84.72
2019-05-22T08:06:01.334Z,84.90
2019-05-22T08:08:33.047Z,85.20
2019-05-22T08:13:43.922Z,85.15
2019-05-22T08:16:13.064Z,84.73
2019-05-22T08:18:42.429Z,84.18
2019-05-22T08:23:53.029Z,82.07
2019-05-22T08:29:06.667Z,82.08
2019-05-22T08:31:37.813Z,81.78
2019-05-22T08:34:08.348Z,81.72
2019-05-22T08:36:39.168Z,82.16
2019-05-22T08:41:47.057Z,83.09
2019-05-22T08:44:18.027Z,83.48
2019-05-22T08:46:47.989Z,82.94
2019-05-22T08:49:17.280Z,82.31
2019-05-22T08:51:46.507Z,82.64
2019-05-22T08:54:15.933Z,82.39
2019-05-22T08:56:50.373Z,82.91
2019-05-22T08:59:20.696Z,83.31
2019-05-22T09:01:49.952Z,83.23
2019-05-22T09:04:19.304Z,83.41
2019-05-22T09:06:48.797Z,83.29
2019-05-22T09:09:18.008Z,83.30
2019-05-22T09:11:47.550Z,84.30
2019-05-22T09:14:16.730Z,84.32
2019-05-22T09:19:26.569Z,84.37
2019-05-22T09:21:56.796Z,83.49
2019-05-22T09:27:04.772Z,83.42
2019-05-22T09:32:10.974Z,84.25
2019-05-22T09:34:40.183Z,83.56
2019-05-22T09:39:47.823Z,83.30
2019-05-22T09:42:17.103Z,82.98
2019-05-22T09:44:45.886Z,83.51
2019-05-22T09:47:14.530Z,82.60
2019-05-22T09:49:44.121Z,82.52
2019-05-22T09:52:13.396Z,82.40
2019-05-22T09:57:22.340Z,81.88
2019-05-22T09:59:50.962Z,81.23
2019-05-22T10:02:20.105Z,80.36
2019-05-22T10:04:49.085Z,80.65
2019-05-22T10:09:56.328Z,80.93
2019-05-22T10:12:25.067Z,81.05
2019-05-22T10:14:54.195Z,81.08
2019-05-22T10:17:24.045Z,80.45
2019-05-22T10:19:53.265Z,81.09
2019-05-22T10:22:22.768Z,81.30
2019-05-22T10:24:52.461Z,80.61
2019-05-22T10:27:22.534Z,80.95
2019-05-22T10:32:32.658Z,81.33
2019-05-22T10:35:01.729Z,81.43
2019-05-22T10:37:30.463Z,81.42
2019-05-22T10:39:59.886Z,81.46
2019-05-22T10:42:29.257Z,81.55
2019-05-22T10:44:57.978Z,81.44
2019-05-22T10:47:26.685Z,81.25
2019-05-22T10:49:57.265Z,80.25
2019-05-22T10:52:26.406Z,79.79
2019-05-22T10:54:56.086Z,79.75
2019-05-22T10:57:25.644Z,79.90
2019-05-22T10:59:54.689Z,80.33
2019-05-22T11:05:03.126Z,81.06
2019-05-22T11:07:33.281Z,81.33
2019-05-22T11:10:03.150Z,80.69
2019-05-22T11:12:32.235Z,80.67
2019-05-22T11:15:01.356Z,80.18
2019-05-22T11:17:31.746Z,79.74
2019-05-22T11:20:00.407Z,79.54
2019-05-22T11:25:12.926Z,80.05
2019-05-22T11:27:41.648Z,79.52
2019-05-22T11:30:13.406Z,79.28
2019-05-22T11:35:22.251Z,78.55
2019-05-22T11:37:52.470Z,78.26
2019-05-22T11:43:04.065Z,78.09
2019-05-22T11:45:33.799Z,78.42
2019-05-22T11:50:46.837Z,79.23
2019-05-22T11:53:16.339Z,78.61
2019-05-22T11:55:46.353Z,77.75
2019-05-22T11:58:15.935Z,76.50
2019-05-22T12:03:24.308Z,75.57
2019-05-22T12:08:38.268Z,74.91
2019-05-22T12:11:08.094Z,75.13
2019-05-22T12:16:23.111Z,75.41
2019-05-22T12:18:53.391Z,74.97
2019-05-22T12:21:22.284Z,74.48
2019-05-22T12:23:51.708Z,75.13
2019-05-22T12:26:21.046Z,74.97
2019-05-22T12:31:27.813Z,75.03
2019-05-22T12:33:57.027Z,73.89
2019-05-22T12:36:28.271Z,73.79
2019-05-22T12:38:58.493Z,72.91
2019-05-22T12:41:28.612Z,72.56
2019-05-22T12:43:57.316Z,71.46
2019-05-22T12:46:27.905Z,70.28
2019-05-22T12:48:58.206Z,69.30
2019-05-22T12:54:05.771Z,67.39
2019-05-22T12:59:14.465Z,65.57
2019-05-22T13:01:45.461Z,65.10
2019-05-22T13:04:15.521Z,64.41
2019-05-22T13:06:45.195Z,64.55
2019-05-22T13:09:14.681Z,63.93
2019-05-22T13:11:46.656Z,64.32
2019-05-22T13:16:59.360Z,63.99
2019-05-22T13:19:32.660Z,63.74
2019-05-22T13:24:44.594Z,64.65
2019-05-22T13:29:54.725Z,66.29
2019-05-22T13:32:23.939Z,65.86
2019-05-22T13:34:54.027Z,65.26
2019-05-22T13:37:22.899Z,64.82
2019-05-22T13:39:52.430Z,65.02
2019-05-22T13:42:22.117Z,64.65
2019-05-22T13:44:54.301Z,63.32
2019-05-22T13:47:25.025Z,62.48
2019-05-22T13:49:55.051Z,62.25
2019-05-22T13:52:25.112Z,61.15
2019-05-22T13:54:56.046Z,60.79
2019-05-22T13:57:25.516Z,59.71
2019-05-22T13:59:54.374Z,58.31
2019-05-22T14:02:26.976Z,58.46
2019-05-22T14:04:54.917Z,58.28
2019-05-22T14:07:24.179Z,57.00
2019-05-22T14:09:54.090Z,56.50
2019-05-22T14:15:02.706Z,57.17
2019-05-22T14:17:32.515Z,55.84
2019-05-22T14:20:02.217Z,56.31
2019-05-22T14:22:31.020Z,56.97
2019-05-22T14:25:00.098Z,57.24
2019-05-22T14:27:29.197Z,54.73
2019-05-22T14:29:58.006Z,54.73
2019-05-22T14:35:04.928Z,55.57
2019-05-22T14:37:34.184Z,55.92
2019-05-22T14:40:04.236Z,55.80
2019-05-22T14:42:33.408Z,55.64
2019-05-22T14:45:02.395Z,56.02
2019-05-22T14:47:31.033Z,56.73
2019-05-22T14:49:59.862Z,55.99
2019-05-22T14:52:28.883Z,56.21
2019-05-22T14:54:57.587Z,56.81
2019-05-22T14:57:26.672Z,55.99
2019-05-22T14:59:56.528Z,56.37
2019-05-22T15:02:25.704Z,56.62
2019-05-22T15:04:55.198Z,56.33
2019-05-22T15:07:24.422Z,56.68
2019-05-22T15:09:53.089Z,56.68
2019-05-22T15:12:22.228Z,56.67
2019-05-22T15:17:32.194Z,55.57
2019-05-22T15:22:36.812Z,54.30
2019-05-22T15:25:06.321Z,53.66
2019-05-22T15:27:35.432Z,53.62
2019-05-22T15:30:04.859Z,52.79
2019-05-22T15:35:15.092Z,52.86
2019-05-22T15:37:45.960Z,52.06
2019-05-22T15:40:18.789Z,51.62
2019-05-22T15:42:48.008Z,52.36
2019-05-22T15:45:20.556Z,51.32
2019-05-22T15:47:55.337Z,51.57
2019-05-22T15:50:27.287Z,51.35
2019-05-22T15:53:02.506Z,51.49
2019-05-22T15:55:33.423Z,51.01
2019-05-22T16:00:47.527Z,51.52
2019-05-22T16:03:20.578Z,51.95
2019-05-22T16:05:52.741Z,52.21
2019-05-22T16:08:22.423Z,51.76
2019-05-22T16:10:51.978Z,51.11
2019-05-22T16:13:24.675Z,51.86
2019-05-22T16:15:56.459Z,52.29
2019-05-22T16:18:31.472Z,52.31
2019-05-22T16:21:04.446Z,52.54
2019-05-22T16:23:37.833Z,52.20
2019-05-22T16:26:09.308Z,52.48
2019-05-22T16:31:18.902Z,52.52
2019-05-22T16:33:51.168Z,53.60
2019-05-22T16:36:20.771Z,52.73
2019-05-22T16:38:50.651Z,53.37
2019-05-22T16:44:04.264Z,52.74
2019-05-22T16:49:15.711Z,51.40
2019-05-22T16:51:45.995Z,51.53
2019-05-22T16:54:20.473Z,52.40
2019-05-22T16:56:47.711Z,51.47
2019-05-22T16:59:18.137Z,51.42
2019-05-22T17:01:58.916Z,49.94
2019-05-22T17:04:18.066Z,49.89
2019-05-22T17:06:47.096Z,49.30
2019-05-22T17:09:18.553Z,49.49
2019-05-22T17:14:25.735Z,50.70
2019-05-22T17:16:54.838Z,50.50
2019-05-22T17:22:05.148Z,49.32
2019-05-22T17:24:34.423Z,49.34
2019-05-22T17:27:04.006Z,48.88
2019-05-22T17:29:33.817Z,49.30
2019-05-22T17:32:03.730Z,49.04
2019-05-22T17:37:13.659Z,49.75
2019-05-22T17:39:46.139Z,49.94
2019-05-22T17:42:18.876Z,50.86
2019-05-22T17:44:51.414Z,51.19
2019-05-22T17:47:23.364Z,50.39
2019-05-22T17:52:30.043Z,51.55
2019-05-22T17:54:59.059Z,51.81
2019-05-22T17:57:30.087Z,50.81
2019-05-22T18:02:50.957Z,51.44
2019-05-22T18:05:20.083Z,51.36
2019-05-22T18:07:49.502Z,52.46
2019-05-22T18:10:18.556Z,52.39
2019-05-22T18:12:47.455Z,51.85
2019-05-22T18:15:17.083Z,52.85
2019-05-22T18:17:47.235Z,52.90
2019-05-22T18:20:18.205Z,52.06
2019-05-22T18:22:47.159Z,51.93
2019-05-22T18:27:54.334Z,52.77
2019-05-22T18:30:25.769Z,52.45
2019-05-22T18:35:32.740Z,53.51
2019-05-22T18:38:04.603Z,53.59
2019-05-22T18:43:10.303Z,54.66
2019-05-22T18:45:39.957Z,54.12
2019-05-22T18:48:09.316Z,54.90
2019-05-22T18:50:38.115Z,55.13
2019-05-22T18:53:07.033Z,54.90
2019-05-22T18:58:16.047Z,55.42
2019-05-22T19:00:45.514Z,56.35
2019-05-22T19:03:14.200Z,56.50
2019-05-22T19:05:43.499Z,56.96
2019-05-22T19:08:13.098Z,57.34
2019-05-22T19:13:21.220Z,57.83
2019-05-22T19:15:50.033Z,57.88
2019-05-22T19:18:19.541Z,57.99
2019-05-22T19:20:48.524Z,58.28
2019-05-22T19:23:17.237Z,59.01
2019-05-22T19:25:46.001Z,59.20
2019-05-22T19:30:55.436Z,59.62
2019-05-22T19:33:24.723Z,59.95
2019-05-22T19:35:54.661Z,59.95
2019-05-22T19:38:24.227Z,60.63
2019-05-22T19:40:52.858Z,61.54
2019-05-22T19:43:21.731Z,62.39
2019-05-22T19:45:51.578Z,64.01
2019-05-22T19:48:20.853Z,63.58
2019-05-22T19:50:50.441Z,64.23
2019-05-22T19:55:59.913Z,65.19
2019-05-22T19:58:29.829Z,66.29
2019-05-22T20:00:58.567Z,66.01
2019-05-22T20:03:27.992Z,66.67
2019-05-22T20:05:56.701Z,67.50
2019-05-22T20:08:25.638Z,66.46
2019-05-22T20:10:54.510Z,65.68
2019-05-22T20:16:04.215Z,68.04
2019-05-22T20:18:33.450Z,68.46
2019-05-22T20:21:02.076Z,67.57
2019-05-22T20:23:36.058Z,67.63
2019-05-22T20:26:01.753Z,68.06
2019-05-22T20:28:31.415Z,68.61
2019-05-22T20:31:00.670Z,68.74
2019-05-22T20:36:06.916Z,69.70
2019-05-22T20:38:36.463Z,69.76
2019-05-22T20:41:05.949Z,69.66
2019-05-22T20:43:34.908Z,70.56
2019-05-22T20:46:06.358Z,71.21
2019-05-22T20:48:35.555Z,71.05
2019-05-22T20:51:07.423Z,70.88
2019-05-22T20:53:52.996Z,71.63
2019-05-22T20:56:10.865Z,71.83
2019-05-22T20:58:40.516Z,71.58
2019-05-22T21:01:10.339Z,72.49
2019-05-22T21:06:22.622Z,72.79
2019-05-22T21:08:52.097Z,72.67
2019-05-22T21:11:25.446Z,72.99
2019-05-22T21:13:54.106Z,72.44
2019-05-22T21:16:22.983Z,73.14
2019-05-22T21:18:52.758Z,72.31
2019-05-22T21:21:24.660Z,72.93
2019-05-22T21:24:09.286Z,72.54
2019-05-22T21:29:04.250Z,73.28
2019-05-22T21:31:34.340Z,72.79
2019-05-22T21:34:03.429Z,74.02
2019-05-22T21:36:33.546Z,74.12
2019-05-22T21:39:02.848Z,74.61
2019-05-22T21:41:31.977Z,74.60
2019-05-22T21:44:00.645Z,75.08
2019-05-22T21:46:30.404Z,75.20
2019-05-22T21:48:59.996Z,74.53
2019-05-22T21:54:09.084Z,75.13
2019-05-22T21:56:39.053Z,76.02
2019-05-22T21:59:08.217Z,74.56
2019-05-22T22:01:47.722Z,75.85
2019-05-22T22:04:25.422Z,75.53
2019-05-22T22:06:55.099Z,76.11
2019-05-22T22:09:26.230Z,75.53
2019-05-22T22:11:55.577Z,76.11
2019-05-22T22:14:25.432Z,75.82
2019-05-22T22:16:55.881Z,76.57
2019-05-22T22:19:25.619Z,76.28
2019-05-22T22:21:55.635Z,77.13
2019-05-22T22:24:25.887Z,77.07
2019-05-22T22:26:56.296Z,77.05
2019-05-22T22:29:25.481Z,77.39
2019-05-22T22:31:57.293Z,77.63
2019-05-22T22:34:39.986Z,77.73
2019-05-22T22:37:11.079Z,77.72
2019-05-22T22:39:43.022Z,77.84
2019-05-22T22:42:13.970Z,77.57
2019-05-22T22:44:46.080Z,77.80
2019-05-22T22:47:19.661Z,78.75
2019-05-22T22:49:48.662Z,78.34
2019-05-22T22:52:18.889Z,78.73
2019-05-22T22:54:48.096Z,78.88
2019-05-22T22:57:17.956Z,79.14
2019-05-22T22:59:47.419Z,78.86
2019-05-22T23:02:20.904Z,78.78
2019-05-22T23:04:51.405Z,78.76
2019-05-22T23:07:21.982Z,78.73
2019-05-22T23:09:51.836Z,79.61
2019-05-22T23:12:21.093Z,79.40
2019-05-22T23:14:56.642Z,79.49
2019-05-22T23:17:26.225Z,78.53
2019-05-22T23:22:35.483Z,79.71
2019-05-22T23:25:06.534Z,79.10
2019-05-22T23:27:38.642Z,79.68
2019-05-22T23:30:09.820Z,80.51
2019-05-22T23:32:40.937Z,80.60
2019-05-22T23:35:09.953Z,80.10
2019-05-22T23:37:40.662Z,80.86
2019-05-22T23:40:13.007Z,80.17
2019-05-22T23:42:43.387Z,79.94
2019-05-22T23:45:18.345Z,79.87
2019-05-22T23:48:06.096Z,79.80
2019-05-22T23:50:37.644Z,80.46
2019-05-22T23:53:08.184Z,80.62
2019-05-22T23:55:38.499Z,80.42
2019-05-22T23:58:11.647Z,81.25
